Time;durP1;ratioP1;P1;durP2;ratioP2;P2;SDS_P1;SDS_P2;PMS_P1;PMS_P2;Temp;Humidity;BMP_temperature;BMP_pressure;BME280_temperature;BME280_humidity;BME280_pressure;Samples;Min_cycle;Max_cycle;Signal;HPM_P1;HPM_P2
2022/07/30 00:00:53;;;;;;;920.63;835.47;;;21.50;99.90;;;;;;5054506;28;20209;-83
2022/07/30 00:03:19;;;;;;;923.08;838.13;;;21.50;99.90;;;;;;5036905;28;20310;-85
2022/07/30 00:05:46;;;;;;;933.97;848.92;;;21.40;99.90;;;;;;5043934;28;20215;-85
2022/07/30 00:08:13;;;;;;;914.28;829.58;;;21.40;99.90;;;;;;5046900;28;20213;-86
2022/07/30 00:10:40;;;;;;;918.22;833.35;;;21.40;99.90;;;;;;5034362;28;20199;-85
2022/07/30 00:13:09;;;;;;;915.75;830.72;;;21.40;99.90;;;;;;5055106;28;20202;-83
2022/07/30 00:15:35;;;;;;;925.00;839.72;;;21.40;99.90;;;;;;5051637;28;20515;-85
2022/07/30 00:18:02;;;;;;;925.10;839.92;;;21.40;99.90;;;;;;5044466;28;20802;-85
2022/07/30 00:20:29;;;;;;;927.75;842.45;;;21.40;99.90;;;;;;5051506;28;20680;-82
2022/07/30 00:22:56;;;;;;;916.80;831.63;;;21.40;99.90;;;;;;5053543;28;20223;-85
2022/07/30 00:25:23;;;;;;;921.67;836.50;;;21.30;99.90;;;;;;5045482;28;20236;-82
2022/07/30 00:27:49;;;;;;;940.20;854.58;;;21.30;99.90;;;;;;5056358;28;20653;-84
2022/07/30 00:30:17;;;;;;;911.47;826.88;;;21.30;99.90;;;;;;5046130;28;20207;-85
2022/07/30 00:32:44;;;;;;;911.88;827.20;;;21.30;99.90;;;;;;5053398;28;20594;-86
2022/07/30 00:35:11;;;;;;;928.72;843.53;;;21.30;99.90;;;;;;5047381;28;20198;-83
2022/07/30 00:37:38;;;;;;;913.35;828.72;;;21.30;99.90;;;;;;5047086;28;20204;-86
2022/07/30 00:40:06;;;;;;;913.20;828.58;;;21.30;99.90;;;;;;5049214;28;20201;-84
2022/07/30 00:42:40;;;;;;;923.53;838.15;;;21.30;99.90;;;;;;5054865;28;20538;-84
2022/07/30 00:45:09;;;;;;;919.20;834.15;;;21.20;99.90;;;;;;5037499;28;20651;-83
2022/07/30 00:47:38;;;;;;;911.60;826.80;;;21.20;99.90;;;;;;5044427;28;20515;-84
2022/07/30 00:50:07;;;;;;;910.35;825.55;;;21.20;99.90;;;;;;5049676;28;20203;-85
2022/07/30 00:52:34;;;;;;;910.95;826.08;;;21.20;99.90;;;;;;5056656;28;20221;-83
2022/07/30 00:55:01;;;;;;;922.00;836.72;;;21.20;99.90;;;;;;5053739;28;20221;-83
2022/07/30 00:57:29;;;;;;;927.13;841.88;;;21.20;99.90;;;;;;5040343;28;20203;-85
2022/07/30 00:59:56;;;;;;;907.15;822.25;;;21.20;99.90;;;;;;5044897;28;20604;-84
2022/07/30 01:02:23;;;;;;;912.50;827.40;;;21.10;99.90;;;;;;5047173;28;20222;-85
2022/07/30 01:04:51;;;;;;;907.80;823.03;;;21.10;99.90;;;;;;5049694;28;20227;-84
2022/07/30 01:07:18;;;;;;;900.40;815.83;;;21.10;99.90;;;;;;5045995;28;20195;-84
2022/07/30 01:09:44;;;;;;;906.17;821.58;;;21.10;99.90;;;;;;5054973;28;20206;-85
2022/07/30 01:12:20;;;;;;;902.70;818.08;;;21.10;99.90;;;;;;5043743;28;20203;-85
2022/07/30 01:14:47;;;;;;;917.90;832.70;;;21.10;99.90;;;;;;5056923;28;20186;-85
2022/07/30 01:17:15;;;;;;;914.03;829.15;;;21.00;99.90;;;;;;5058787;28;20725;-84
2022/07/30 01:19:51;;;;;;;910.58;825.78;;;21.00;99.90;;;;;;5058334;28;20205;-85
2022/07/30 01:22:29;;;;;;;911.75;826.97;;;21.00;99.90;;;;;;5049815;28;20194;-84
2022/07/30 01:25:08;;;;;;;896.38;811.88;;;21.00;99.90;;;;;;5045528;28;20252;-85
2022/07/30 01:27:41;;;;;;;911.75;826.95;;;21.00;99.90;;;;;;5032268;28;20211;-84
2022/07/30 01:30:09;;;;;;;903.22;818.42;;;21.00;99.90;;;;;;5046581;28;20652;-84
2022/07/30 01:32:41;;;;;;;911.45;826.67;;;20.90;99.90;;;;;;5036510;28;20201;-85
2022/07/30 01:35:10;;;;;;;893.10;808.88;;;20.90;99.90;;;;;;5041365;28;20202;-85
2022/07/30 01:37:39;;;;;;;900.63;816.28;;;20.90;99.90;;;;;;5038576;28;20199;-84
2022/07/30 01:40:07;;;;;;;900.15;815.60;;;20.90;99.90;;;;;;5056263;28;20249;-85
2022/07/30 01:42:37;;;;;;;921.10;835.83;;;20.90;99.90;;;;;;5043650;28;20202;-85
2022/07/30 01:45:05;;;;;;;912.63;827.80;;;20.90;99.90;;;;;;5047846;28;20282;-86
2022/07/30 01:47:34;;;;;;;905.35;820.70;;;20.80;99.90;;;;;;5047242;28;20200;-86
2022/07/30 01:50:03;;;;;;;886.60;802.33;;;20.80;99.90;;;;;;5047303;28;20672;-85
2022/07/30 01:52:32;;;;;;;908.05;823.15;;;20.80;99.90;;;;;;5061810;28;20197;-87
2022/07/30 01:55:02;;;;;;;903.65;818.80;;;20.80;99.90;;;;;;5047306;28;20316;-87
2022/07/30 01:57:29;;;;;;;905.63;820.72;;;20.80;99.90;;;;;;5035318;28;20669;-86
2022/07/30 02:00:03;;;;;;;898.03;813.25;;;20.80;99.90;;;;;;5046733;28;20192;-85
2022/07/30 02:02:30;;;;;;;898.28;813.67;;;20.70;99.90;;;;;;5046539;28;20238;-83
2022/07/30 02:04:57;;;;;;;906.03;821.35;;;20.70;99.90;;;;;;5041021;28;20230;-85
2022/07/30 02:07:33;;;;;;;906.60;821.83;;;20.70;99.90;;;;;;5053739;28;20644;-85
2022/07/30 02:10:05;;;;;;;896.03;811.72;;;20.70;99.90;;;;;;5049946;28;20664;-85
2022/07/30 02:12:35;;;;;;;902.40;817.90;;;20.70;99.90;;;;;;5041126;28;20197;-86
2022/07/30 02:15:12;;;;;;;906.58;822.40;;;20.70;99.90;;;;;;5040298;28;20663;-86
2022/07/30 02:17:42;;;;;;;891.85;807.67;;;20.70;99.90;;;;;;5050457;28;20205;-87
2022/07/30 02:20:11;;;;;;;904.08;819.30;;;20.70;99.90;;;;;;5058095;28;20195;-87
2022/07/30 02:22:42;;;;;;;905.47;820.88;;;20.60;99.90;;;;;;5051726;28;20212;-87
2022/07/30 02:25:12;;;;;;;899.13;814.53;;;20.60;99.90;;;;;;5044351;28;20250;-85
2022/07/30 02:27:41;;;;;;;900.55;815.85;;;20.60;99.90;;;;;;5049022;28;20198;-86
2022/07/30 02:30:12;;;;;;;882.03;797.58;;;20.60;99.90;;;;;;5054412;28;20205;-86
2022/07/30 02:32:42;;;;;;;907.13;822.17;;;20.60;99.90;;;;;;5042839;28;20574;-86
2022/07/30 02:35:13;;;;;;;880.45;796.45;;;20.50;99.90;;;;;;5051638;28;21949;-86
2022/07/30 02:37:42;;;;;;;893.72;809.10;;;20.50;99.90;;;;;;5046086;28;20649;-86
2022/07/30 02:40:14;;;;;;;883.85;799.65;;;20.50;99.90;;;;;;5034996;28;20235;-87
2022/07/30 02:42:42;;;;;;;893.88;809.50;;;20.50;99.90;;;;;;5044839;28;20212;-85
2022/07/30 02:45:11;;;;;;;881.35;797.40;;;20.50;99.90;;;;;;5057829;28;20231;-85
2022/07/30 02:47:39;;;;;;;879.05;794.97;;;20.50;99.90;;;;;;5050333;28;20203;-82
2022/07/30 02:50:09;;;;;;;880.97;796.85;;;20.50;99.90;;;;;;5050506;28;20672;-83
2022/07/30 02:52:37;;;;;;;882.42;798.53;;;20.50;99.90;;;;;;5048033;28;20202;-81
2022/07/30 02:55:06;;;;;;;875.83;791.95;;;20.50;99.90;;;;;;5040310;28;20234;-82
2022/07/30 02:57:34;;;;;;;886.55;802.65;;;20.50;99.90;;;;;;5050180;28;20302;-81
2022/07/30 03:00:03;;;;;;;878.15;794.33;;;20.40;99.90;;;;;;5043360;28;20260;-81
2022/07/30 03:02:33;;;;;;;882.17;798.47;;;20.40;99.90;;;;;;5035235;28;20221;-81
2022/07/30 03:05:01;;;;;;;878.95;795.15;;;20.40;99.90;;;;;;5039386;28;20221;-82
2022/07/30 03:07:30;;;;;;;894.80;810.67;;;20.40;99.90;;;;;;5043356;28;20202;-82
2022/07/30 03:09:57;;;;;;;886.67;802.72;;;20.40;99.90;;;;;;5052483;28;20202;-82
2022/07/30 03:12:29;;;;;;;888.22;804.00;;;20.40;99.90;;;;;;5046069;28;20284;-82
2022/07/30 03:14:56;;;;;;;877.92;793.80;;;20.30;99.90;;;;;;5048432;28;20499;-82
2022/07/30 03:17:25;;;;;;;885.60;801.22;;;20.30;99.90;;;;;;5037163;28;20203;-81
2022/07/30 03:19:55;;;;;;;886.72;802.33;;;20.30;99.90;;;;;;5046652;28;20209;-82
2022/07/30 03:22:25;;;;;;;888.47;804.05;;;20.30;99.90;;;;;;5039462;28;20248;-82
2022/07/30 03:24:54;;;;;;;866.75;783.13;;;20.30;99.90;;;;;;5044300;28;20306;-82
2022/07/30 03:27:23;;;;;;;883.58;799.17;;;20.30;99.90;;;;;;5037152;28;20570;-82
2022/07/30 03:29:54;;;;;;;881.00;796.70;;;20.30;99.90;;;;;;5046767;28;20569;-83
2022/07/30 03:32:23;;;;;;;903.55;818.53;;;20.30;99.90;;;;;;5049166;28;20193;-83
2022/07/30 03:34:50;;;;;;;891.97;807.70;;;20.20;99.90;;;;;;5046679;28;20209;-83
2022/07/30 03:37:19;;;;;;;863.17;779.72;;;20.20;99.90;;;;;;5049068;28;20557;-85
2022/07/30 03:39:46;;;;;;;869.72;786.33;;;20.20;99.90;;;;;;5040278;28;20207;-84
2022/07/30 03:42:17;;;;;;;868.35;785.78;;;20.20;99.90;;;;;;5045568;28;20201;-85
2022/07/30 03:44:45;;;;;;;875.58;792.85;;;20.20;99.90;;;;;;5054348;28;20232;-85
2022/07/30 03:47:17;;;;;;;877.38;794.33;;;20.20;99.90;;;;;;5038470;28;20354;-85
2022/07/30 03:49:44;;;;;;;867.88;785.90;;;20.10;99.90;;;;;;5059508;28;20753;-83
2022/07/30 03:52:11;;;;;;;877.50;794.85;;;20.10;99.90;;;;;;5048442;28;20293;-84
2022/07/30 03:54:41;;;;;;;869.13;787.20;;;20.10;99.90;;;;;;5052410;28;20201;-84
2022/07/30 03:57:08;;;;;;;877.80;795.95;;;20.10;99.90;;;;;;5043039;28;20202;-85
2022/07/30 03:59:35;;;;;;;879.47;797.72;;;20.10;99.90;;;;;;5036454;28;20654;-84
2022/07/30 04:02:02;;;;;;;874.45;792.35;;;20.10;99.90;;;;;;5037002;28;20352;-85
2022/07/30 04:04:30;;;;;;;864.25;782.13;;;20.10;99.90;;;;;;5041035;28;20242;-84
2022/07/30 04:06:57;;;;;;;868.22;785.95;;;20.10;99.90;;;;;;5066731;28;20200;-84
2022/07/30 04:09:25;;;;;;;871.72;789.38;;;20.10;99.90;;;;;;5060701;28;20198;-84
2022/07/30 04:11:53;;;;;;;863.95;781.78;;;20.00;99.90;;;;;;5046538;28;20207;-82
2022/07/30 04:14:20;;;;;;;868.80;786.40;;;20.00;99.90;;;;;;5067204;28;20204;-81
2022/07/30 04:16:49;;;;;;;861.97;779.53;;;20.00;99.90;;;;;;5051697;28;20202;-83
2022/07/30 04:19:21;;;;;;;883.38;800.10;;;20.00;99.90;;;;;;5056849;28;20197;-83
2022/07/30 04:21:50;;;;;;;869.72;786.72;;;20.00;99.90;;;;;;5046861;28;20209;-83
2022/07/30 04:24:19;;;;;;;865.55;782.58;;;20.00;99.90;;;;;;5058763;28;20205;-83
2022/07/30 04:26:48;;;;;;;866.08;783.33;;;20.00;99.90;;;;;;5060783;28;20224;-82
2022/07/30 04:29:17;;;;;;;864.67;781.40;;;19.90;99.90;;;;;;5056942;28;20201;-83
2022/07/30 04:31:45;;;;;;;856.47;773.47;;;19.90;99.90;;;;;;5048643;28;20289;-82
2022/07/30 04:34:13;;;;;;;874.88;791.53;;;19.90;99.90;;;;;;5044114;28;20652;-82
2022/07/30 04:36:41;;;;;;;876.65;793.08;;;19.90;99.90;;;;;;5045804;28;20740;-82
2022/07/30 04:39:08;;;;;;;849.38;766.45;;;19.90;99.90;;;;;;5051695;28;20201;-82
2022/07/30 04:41:36;;;;;;;868.38;784.50;;;19.90;99.90;;;;;;5048841;28;20237;-83
2022/07/30 04:44:03;;;;;;;856.13;772.65;;;19.90;99.90;;;;;;5048324;28;20200;-82
2022/07/30 04:46:31;;;;;;;856.75;773.17;;;19.90;99.90;;;;;;5044072;28;20231;-82
2022/07/30 04:48:58;;;;;;;867.40;783.72;;;19.90;99.90;;;;;;5052462;28;20200;-82
2022/07/30 04:51:29;;;;;;;852.28;768.90;;;19.90;99.90;;;;;;5046519;28;20195;-82
2022/07/30 04:53:57;;;;;;;866.08;782.33;;;19.90;99.90;;;;;;5058026;28;20201;-82
2022/07/30 04:56:25;;;;;;;853.85;770.17;;;19.80;99.90;;;;;;5047632;28;20208;-81
2022/07/30 04:58:53;;;;;;;851.03;767.22;;;19.80;99.90;;;;;;5044703;28;20197;-83
2022/07/30 05:01:24;;;;;;;859.33;775.78;;;19.80;99.90;;;;;;5045680;28;20228;-82
2022/07/30 05:03:53;;;;;;;847.03;763.60;;;19.80;99.90;;;;;;5048229;28;20663;-82
2022/07/30 05:06:21;;;;;;;859.08;775.67;;;19.80;99.90;;;;;;5055026;28;20227;-81
2022/07/30 05:08:48;;;;;;;856.08;772.70;;;19.80;99.90;;;;;;5047953;28;20205;-82
2022/07/30 05:11:15;;;;;;;848.60;765.33;;;19.80;99.90;;;;;;5045748;28;20563;-82
2022/07/30 05:13:43;;;;;;;857.22;774.45;;;19.80;99.90;;;;;;5056228;28;20448;-82
2022/07/30 05:16:10;;;;;;;841.80;758.90;;;19.80;99.90;;;;;;5051427;28;20213;-82
2022/07/30 05:18:37;;;;;;;849.60;766.42;;;19.80;99.90;;;;;;5057338;28;20636;-83
2022/07/30 05:21:06;;;;;;;859.65;776.25;;;19.80;99.90;;;;;;5054571;28;20280;-83
2022/07/30 05:23:34;;;;;;;856.28;772.90;;;19.80;99.90;;;;;;5034707;28;20196;-82
2022/07/30 05:26:02;;;;;;;860.75;776.97;;;19.80;99.90;;;;;;5041484;28;20231;-83
2022/07/30 05:28:29;;;;;;;842.20;758.95;;;19.80;99.90;;;;;;5045971;28;20193;-82
2022/07/30 05:30:56;;;;;;;837.65;754.70;;;19.80;99.90;;;;;;5042425;28;20671;-82
2022/07/30 05:33:23;;;;;;;840.83;757.58;;;19.80;99.90;;;;;;5044974;28;20198;-83
2022/07/30 05:35:53;;;;;;;820.70;738.40;;;19.80;99.90;;;;;;5049826;28;20215;-82
2022/07/30 05:38:21;;;;;;;856.97;773.28;;;19.80;99.90;;;;;;5048633;28;20200;-82
2022/07/30 05:40:48;;;;;;;857.42;773.92;;;19.90;99.90;;;;;;5042967;28;20291;-83
2022/07/30 05:43:14;;;;;;;855.28;771.78;;;20.00;99.90;;;;;;5045747;28;20569;-82
2022/07/30 05:45:41;;;;;;;848.53;765.22;;;20.20;99.90;;;;;;5053304;28;20218;-83
2022/07/30 05:48:09;;;;;;;850.63;766.90;;;20.30;99.90;;;;;;5037436;28;20209;-83
2022/07/30 05:50:36;;;;;;;870.42;786.55;;;20.50;99.90;;;;;;5052569;28;20205;-81
2022/07/30 05:53:03;;;;;;;886.60;802.13;;;20.70;99.90;;;;;;5040409;28;20233;-82
2022/07/30 05:55:31;;;;;;;897.60;812.83;;;20.90;99.90;;;;;;5039507;28;20662;-81
2022/07/30 05:57:57;;;;;;;916.90;831.72;;;21.10;99.90;;;;;;5045503;28;20202;-81
2022/07/30 06:00:24;;;;;;;898.88;814.42;;;21.20;99.90;;;;;;5051506;28;20211;-79
2022/07/30 06:02:51;;;;;;;914.55;829.55;;;21.40;99.90;;;;;;5049655;28;20673;-80
2022/07/30 06:05:18;;;;;;;912.22;827.50;;;21.50;99.90;;;;;;5042603;28;20214;-81
2022/07/30 06:07:46;;;;;;;930.55;845.08;;;21.60;99.90;;;;;;5057336;28;20218;-81
2022/07/30 06:10:13;;;;;;;924.30;838.72;;;21.80;99.90;;;;;;5033917;28;20250;-81
2022/07/30 06:12:42;;;;;;;931.88;846.60;;;21.90;99.90;;;;;;5043303;28;20685;-81
2022/07/30 06:15:10;;;;;;;936.13;850.53;;;22.00;99.90;;;;;;5039489;28;20209;-81
2022/07/30 06:17:43;;;;;;;947.50;861.70;;;22.10;99.90;;;;;;5048745;28;20198;-82
2022/07/30 06:20:11;;;;;;;960.05;873.67;;;22.20;99.90;;;;;;5044710;28;20199;-80
2022/07/30 06:22:38;;;;;;;949.95;864.08;;;22.30;99.90;;;;;;5056264;28;20199;-80
2022/07/30 06:25:05;;;;;;;941.35;855.67;;;22.40;99.90;;;;;;5038835;28;20203;-79
2022/07/30 06:27:33;;;;;;;963.80;877.38;;;22.40;99.90;;;;;;5050755;28;20264;-81
2022/07/30 06:30:01;;;;;;;956.10;869.95;;;22.50;99.90;;;;;;5051763;28;20742;-81
2022/07/30 06:32:28;;;;;;;955.95;870.03;;;22.60;99.90;;;;;;5049936;28;20203;-81
2022/07/30 06:34:55;;;;;;;977.10;890.60;;;22.70;99.90;;;;;;5053870;28;20619;-81
2022/07/30 06:37:23;;;;;;;953.70;867.88;;;22.70;99.90;;;;;;5046248;28;20195;-82
2022/07/30 06:39:49;;;;;;;971.80;885.60;;;22.90;99.90;;;;;;5040676;28;20207;-82
2022/07/30 06:42:16;;;;;;;974.72;888.05;;;22.90;99.90;;;;;;5045704;28;20646;-82
2022/07/30 06:44:47;;;;;;;987.13;900.35;;;23.00;99.90;;;;;;5042716;28;20199;-82
2022/07/30 06:47:20;;;;;;;989.25;902.30;;;23.10;99.90;;;;;;5036232;28;20241;-81
2022/07/30 06:49:46;;;;;;;995.38;908.33;;;23.20;99.90;;;;;;5046130;28;20249;-81
2022/07/30 06:52:13;;;;;;;994.03;906.95;;;23.20;99.90;;;;;;5050955;28;20195;-82
2022/07/30 06:54:40;;;;;;;989.78;902.75;;;23.30;99.90;;;;;;5038971;28;20210;-82
2022/07/30 06:57:07;;;;;;;1005.47;918.00;;;23.40;99.90;;;;;;5047724;28;20201;-81
2022/07/30 06:59:35;;;;;;;999.25;911.75;;;23.50;99.80;;;;;;5036184;28;20210;-81
2022/07/30 07:02:02;;;;;;;1002.25;914.75;;;23.50;99.50;;;;;;5041098;28;20218;-81
2022/07/30 07:04:33;;;;;;;1025.68;937.35;;;23.70;99.30;;;;;;5035862;28;20211;-81
2022/07/30 07:07:00;;;;;;;1006.85;919.78;;;23.70;99.10;;;;;;5061445;28;20305;-85
2022/07/30 07:09:26;;;;;;;1001.22;914.38;;;23.80;98.90;;;;;;5051412;28;20718;-85
2022/07/30 07:11:53;;;;;;;1013.90;926.10;;;23.90;98.60;;;;;;5048163;28;20195;-85
2022/07/30 07:14:21;;;;;;;1011.63;924.50;;;23.90;98.50;;;;;;5043666;28;20555;-85
2022/07/30 07:16:52;;;;;;;1013.30;925.67;;;24.00;98.30;;;;;;5058143;28;20745;-83
2022/07/30 07:19:19;;;;;;;1022.17;934.37;;;24.00;98.10;;;;;;5034996;28;20457;-85
2022/07/30 07:21:48;;;;;;;1017.60;929.63;;;24.10;98.00;;;;;;5058017;28;20468;-84
2022/07/30 07:24:15;;;;;;;1035.87;947.37;;;24.20;98.00;;;;;;5050054;28;20446;-84
2022/07/30 07:26:41;;;;;;;1033.07;944.83;;;24.20;97.80;;;;;;5043242;28;20474;-83
2022/07/30 07:29:08;;;;;;;1027.23;939.03;;;24.20;97.60;;;;;;5043820;28;20206;-83
2022/07/30 07:31:35;;;;;;;1026.47;938.23;;;24.30;97.50;;;;;;5056446;28;20448;-84
2022/07/30 07:34:02;;;;;;;1038.73;950.20;;;24.40;97.40;;;;;;5045814;28;20829;-83
2022/07/30 07:36:28;;;;;;;1039.90;951.50;;;24.40;97.40;;;;;;5044341;28;20460;-82
2022/07/30 07:38:56;;;;;;;1035.93;948.13;;;24.50;97.20;;;;;;5038780;28;20446;-84
2022/07/30 07:41:23;;;;;;;1044.67;960.63;;;24.50;97.20;;;;;;5041930;28;20452;-83
2022/07/30 07:43:50;;;;;;;1060.73;976.27;;;24.60;97.40;;;;;;5057172;28;20444;-83
2022/07/30 07:46:17;;;;;;;1049.33;964.77;;;24.60;96.70;;;;;;5045632;28;20481;-83
2022/07/30 07:48:44;;;;;;;1067.77;982.27;;;24.70;96.70;;;;;;5053911;28;20973;-84
2022/07/30 07:51:10;;;;;;;1068.37;982.87;;;24.70;96.60;;;;;;5051049;28;20821;-84
2022/07/30 07:53:37;;;;;;;1058.70;973.20;;;24.80;96.50;;;;;;5049018;28;20455;-81
2022/07/30 07:56:07;;;;;;;1061.30;975.40;;;24.80;96.30;;;;;;5051869;28;20464;-80
2022/07/30 07:58:34;;;;;;;1068.83;982.87;;;24.90;96.40;;;;;;5043231;28;20478;-80
2022/07/30 08:01:00;;;;;;;1072.90;986.23;;;24.90;96.40;;;;;;5044130;28;20471;-80
2022/07/30 08:03:27;;;;;;;1065.70;979.40;;;24.90;96.30;;;;;;5049429;28;20453;-80
2022/07/30 08:05:54;;;;;;;1070.93;984.47;;;24.90;96.40;;;;;;5060127;28;20450;-80
2022/07/30 08:08:20;;;;;;;1072.00;985.13;;;24.90;96.30;;;;;;5061679;28;20456;-80
2022/07/30 08:10:49;;;;;;;1059.00;974.10;;;24.90;96.20;;;;;;5049346;28;20971;-81
2022/07/30 08:13:18;;;;;;;1065.40;979.03;;;25.00;96.20;;;;;;5048790;28;20465;-80
2022/07/30 08:15:45;;;;;;;1072.97;986.27;;;25.00;96.10;;;;;;5054742;28;20982;-80
2022/07/30 08:18:12;;;;;;;1066.50;979.83;;;25.00;96.10;;;;;;5054005;28;20458;-80
2022/07/30 08:20:39;;;;;;;1072.73;985.33;;;25.00;96.10;;;;;;5040452;28;20431;-80
2022/07/30 08:23:06;;;;;;;1078.57;990.97;;;25.00;96.20;;;;;;5051318;28;20450;-80
2022/07/30 08:25:33;;;;;;;1074.07;986.33;;;25.00;96.20;;;;;;5048907;28;20967;-79
2022/07/30 08:28:02;;;;;;;1075.60;987.50;;;25.10;96.30;;;;;;5048133;28;20473;-80
2022/07/30 08:30:30;;;;;;;1077.53;989.30;;;25.10;96.20;;;;;;5049050;28;20508;-80
2022/07/30 08:32:57;;;;;;;1091.33;998.83;;;25.20;96.30;;;;;;5049944;28;20454;-79
2022/07/30 08:35:24;;;;;;;1092.90;999.17;;;25.20;96.00;;;;;;5052554;28;20460;-80
2022/07/30 08:37:50;;;;;;;1085.63;995.03;;;25.20;95.90;;;;;;5048656;28;20969;-79
2022/07/30 08:40:21;;;;;;;1075.10;986.93;;;25.10;95.90;;;;;;5049475;28;20824;-81
2022/07/30 08:42:48;;;;;;;1088.67;997.83;;;25.10;96.20;;;;;;5042955;28;21223;-81
2022/07/30 08:45:17;;;;;;;1085.03;995.33;;;25.10;96.20;;;;;;5052235;28;20462;-79
2022/07/30 08:47:46;;;;;;;1071.57;983.60;;;25.10;96.10;;;;;;5044529;28;20486;-80
2022/07/30 08:50:14;;;;;;;1092.97;999.40;;;25.20;96.10;;;;;;5065304;28;20465;-81
2022/07/30 08:52:43;;;;;;;1083.17;993.57;;;25.10;96.10;;;;;;5043306;28;20462;-79
2022/07/30 08:55:10;;;;;;;1081.37;992.50;;;25.20;96.20;;;;;;5068882;28;20468;-79
2022/07/30 08:57:37;;;;;;;1089.17;997.90;;;25.20;96.10;;;;;;5044694;28;20508;-80
2022/07/30 09:00:07;;;;;;;1081.80;992.63;;;25.20;96.30;;;;;;5033985;28;20790;-81
2022/07/30 09:02:34;;;;;;;1092.47;998.87;;;25.20;96.20;;;;;;5038610;28;20482;-80
2022/07/30 09:05:03;;;;;;;1079.33;990.03;;;25.30;96.30;;;;;;5056787;28;20968;-80
2022/07/30 09:07:31;;;;;;;1078.57;991.13;;;25.30;96.00;;;;;;5048704;28;20484;-80
2022/07/30 09:09:59;;;;;;;1079.70;991.40;;;25.30;96.00;;;;;;5044763;28;20460;-80
2022/07/30 09:12:33;;;;;;;1095.27;999.60;;;25.30;96.10;;;;;;5044225;28;20453;-80
2022/07/30 09:15:06;;;;;;;1099.67;999.90;;;25.40;96.00;;;;;;5064269;28;20425;-80
2022/07/30 09:17:47;;;;;;;1096.97;999.90;;;25.40;96.00;;;;;;5041618;28;20785;-81
2022/07/30 09:20:15;;;;;;;1094.97;999.50;;;25.40;95.90;;;;;;5044291;28;20806;-80
2022/07/30 09:22:44;;;;;;;1086.40;995.33;;;25.40;95.90;;;;;;5045635;28;20449;-80
2022/07/30 09:25:11;;;;;;;1089.03;997.00;;;25.40;95.80;;;;;;5040559;28;20453;-80
2022/07/30 09:27:45;;;;;;;1090.97;998.03;;;25.50;96.00;;;;;;5047718;28;20473;-81
2022/07/30 09:30:13;;;;;;;1089.10;997.00;;;25.50;95.90;;;;;;5047490;28;20452;-81
2022/07/30 09:32:48;;;;;;;1094.70;999.20;;;25.40;96.00;;;;;;5048659;28;20453;-80
2022/07/30 09:35:16;;;;;;;1086.90;995.27;;;25.40;96.00;;;;;;5064631;28;20463;-80
2022/07/30 09:37:44;;;;;;;1093.87;998.10;;;25.40;96.20;;;;;;5061551;28;20757;-81
2022/07/30 09:40:13;;;;;;;1081.40;991.03;;;25.40;96.20;;;;;;5058226;28;20456;-80
2022/07/30 09:42:40;;;;;;;1087.83;996.07;;;25.40;96.20;;;;;;5055334;28;20863;-81
2022/07/30 09:45:08;;;;;;;1082.23;991.60;;;25.40;96.30;;;;;;5041487;28;20545;-81
2022/07/30 09:47:37;;;;;;;1092.13;998.13;;;25.30;96.30;;;;;;5050563;28;20474;-80
2022/07/30 09:50:06;;;;;;;1095.60;999.30;;;25.30;96.30;;;;;;5043903;28;20457;-81
2022/07/30 09:52:35;;;;;;;1096.27;999.57;;;25.30;96.30;;;;;;5053399;28;20453;-81
2022/07/30 09:55:02;;;;;;;1082.30;991.93;;;25.30;96.50;;;;;;5038945;28;20465;-80
2022/07/30 09:57:29;;;;;;;1088.73;996.50;;;25.30;96.50;;;;;;5035867;28;20877;-80
2022/07/30 10:00:00;;;;;;;1086.43;994.77;;;25.30;96.50;;;;;;5042454;28;20464;-81
2022/07/30 10:02:30;;;;;;;1089.43;997.00;;;25.30;96.50;;;;;;5041197;28;21007;-80
2022/07/30 10:05:09;;;;;;;1077.90;987.60;;;25.30;96.60;;;;;;5059208;28;20499;-81
2022/07/30 10:07:38;;;;;;;1082.93;992.50;;;25.30;96.50;;;;;;5053514;28;20460;-81
2022/07/30 10:10:06;;;;;;;1083.47;993.07;;;25.30;96.50;;;;;;5045717;28;20474;-81
2022/07/30 10:12:34;;;;;;;1078.60;988.03;;;25.30;96.60;;;;;;5049410;28;20497;-80
2022/07/30 10:15:02;;;;;;;1090.33;997.77;;;25.30;96.60;;;;;;5049972;28;20456;-82
2022/07/30 10:17:33;;;;;;;1080.47;990.30;;;25.30;96.60;;;;;;5055430;28;20437;-80
2022/07/30 10:20:00;;;;;;;1068.43;978.73;;;25.30;96.60;;;;;;5052398;28;20507;-80
2022/07/30 10:22:28;;;;;;;1072.47;982.40;;;25.30;96.60;;;;;;5044532;28;20472;-81
2022/07/30 10:24:56;;;;;;;1093.57;999.37;;;25.30;96.60;;;;;;5048764;28;20856;-80
2022/07/30 10:27:23;;;;;;;1085.93;994.73;;;25.30;96.60;;;;;;5056935;28;20480;-80
2022/07/30 10:29:51;;;;;;;1084.33;993.60;;;25.20;96.60;;;;;;5036492;28;20464;-80
2022/07/30 10:32:18;;;;;;;1083.37;992.77;;;25.20;96.50;;;;;;5046712;28;20441;-80
2022/07/30 10:34:47;;;;;;;1084.43;993.90;;;25.20;96.50;;;;;;5033751;28;20466;-83
2022/07/30 10:37:16;;;;;;;1056.43;967.37;;;25.20;96.60;;;;;;5035149;28;20438;-81
2022/07/30 10:39:50;;;;;;;1070.47;980.73;;;25.20;96.50;;;;;;5042357;28;20432;-80
2022/07/30 10:42:53;;;;;;;1078.70;988.73;;;25.20;96.60;;;;;;5045881;28;20435;-80
2022/07/30 10:45:26;;;;;;;1073.70;983.70;;;25.20;96.40;;;;;;5050861;28;20427;-81
2022/07/30 10:47:55;;;;;;;1063.83;974.07;;;25.10;96.30;;;;;;5047713;28;20488;-80
2022/07/30 10:50:25;;;;;;;1082.30;992.00;;;25.10;96.50;;;;;;5039092;28;20485;-81
2022/07/30 10:52:53;;;;;;;1073.40;983.43;;;25.10;96.30;;;;;;5049292;28;20450;-81
2022/07/30 10:55:22;;;;;;;1072.93;983.27;;;25.10;96.40;;;;;;5057637;28;20681;-81
2022/07/30 10:58:01;;;;;;;1078.93;989.23;;;25.10;96.40;;;;;;5061465;28;20466;-79
2022/07/30 11:00:29;;;;;;;1066.17;977.80;;;25.10;96.50;;;;;;5040061;28;20465;-80
2022/07/30 11:03:15;;;;;;;1087.33;997.17;;;25.00;96.50;;;;;;5037931;28;20545;-79
2022/07/30 11:05:42;;;;;;;1082.57;994.07;;;25.00;96.60;;;;;;5038740;28;20848;-80
2022/07/30 11:08:31;;;;;;;1074.50;986.43;;;25.00;96.50;;;;;;5047339;28;21007;-79
2022/07/30 11:10:59;;;;;;;1066.20;978.50;;;25.00;96.50;;;;;;5034995;28;20552;-79
2022/07/30 11:13:53;;;;;;;1074.67;986.60;;;25.00;96.50;;;;;;5041865;28;20464;-78
2022/07/30 11:16:20;;;;;;;1069.40;981.37;;;25.00;96.50;;;;;;5044030;28;20457;-80
2022/07/30 11:19:05;;;;;;;1061.87;974.03;;;25.00;96.50;;;;;;5042806;28;20460;-79
2022/07/30 11:21:32;;;;;;;1069.13;979.83;;;25.00;96.50;;;;;;5041412;28;20545;-78
2022/07/30 11:24:00;;;;;;;1063.90;974.20;;;25.00;96.50;;;;;;5039488;28;20434;-78
2022/07/30 11:26:52;;;;;;;1066.57;977.97;;;25.00;96.30;;;;;;5037401;28;20723;-78
2022/07/30 11:29:35;;;;;;;1063.87;977.00;;;25.00;96.20;;;;;;5032342;28;20446;-78
2022/07/30 11:32:30;;;;;;;1084.60;995.70;;;25.00;96.10;;;;;;5040040;28;20457;-80
2022/07/30 11:35:16;;;;;;;1077.93;989.97;;;25.00;96.00;;;;;;5029469;28;20454;-79
2022/07/30 11:38:06;;;;;;;1062.73;975.33;;;25.10;96.00;;;;;;5047762;28;20476;-78
2022/07/30 11:40:38;;;;;;;1062.93;974.33;;;25.00;95.90;;;;;;5045625;28;20446;-78
2022/07/30 11:43:21;;;;;;;1069.13;979.73;;;25.00;96.00;;;;;;5045549;28;20464;-80
2022/07/30 11:45:50;;;;;;;1061.77;972.53;;;25.00;95.90;;;;;;5043711;28;20909;-79
2022/07/30 11:48:20;;;;;;;1047.93;959.23;;;25.00;96.00;;;;;;5040841;28;20545;-79
2022/07/30 11:50:47;;;;;;;1050.63;961.83;;;25.00;96.30;;;;;;5042458;28;20541;-78
2022/07/30 11:53:17;;;;;;;1058.53;969.43;;;25.00;96.00;;;;;;5060388;28;20832;-79
2022/07/30 11:55:51;;;;;;;1046.70;957.80;;;25.00;95.90;;;;;;5048298;28;20480;-78
2022/07/30 11:58:26;;;;;;;1050.57;961.67;;;25.00;95.90;;;;;;5041590;28;20456;-79
2022/07/30 12:01:02;;;;;;;1038.10;949.63;;;25.00;95.90;;;;;;5041878;28;20465;-79
2022/07/30 12:03:31;;;;;;;1049.73;960.87;;;25.00;96.00;;;;;;5045599;28;20456;-80
2022/07/30 12:06:04;;;;;;;1044.13;955.33;;;25.00;96.00;;;;;;5059081;28;20465;-79
2022/07/30 12:08:40;;;;;;;1045.67;956.87;;;25.00;95.90;;;;;;5039393;28;20474;-80
2022/07/30 12:11:08;;;;;;;1055.60;966.27;;;25.00;96.00;;;;;;5040205;28;20452;-83
2022/07/30 12:13:36;;;;;;;1056.87;968.47;;;25.00;96.10;;;;;;5044341;28;20432;-80